sensor_id;sensor_type;location;lat;lon;timestamp;P1;durP1;ratioP1;P2;durP2;ratioP2
19059;SDS011;9663;48.996;8.334;2023-12-29T00:00:41;4.15;;;1.50;;
19059;SDS011;9663;48.996;8.334;2023-12-29T00:03:07;3.38;;;1.50;;
19059;SDS011;9663;48.996;8.334;2023-12-29T00:05:32;3.40;;;1.60;;
19059;SDS011;9663;48.996;8.334;2023-12-29T00:07:58;3.97;;;1.30;;
19059;SDS011;9663;48.996;8.334;2023-12-29T00:10:24;4.10;;;1.63;;
19059;SDS011;9663;48.996;8.334;2023-12-29T00:12:49;3.72;;;1.60;;
19059;SDS011;9663;48.996;8.334;2023-12-29T00:15:18;3.85;;;1.83;;
19059;SDS011;9663;48.996;8.334;2023-12-29T00:17:44;3.90;;;1.40;;
19059;SDS011;9663;48.996;8.334;2023-12-29T00:20:11;3.58;;;1.50;;
19059;SDS011;9663;48.996;8.334;2023-12-29T00:22:37;3.20;;;1.38;;
19059;SDS011;9663;48.996;8.334;2023-12-29T00:25:03;3.55;;;1.75;;
19059;SDS011;9663;48.996;8.334;2023-12-29T00:27:30;4.18;;;1.67;;
19059;SDS011;9663;48.996;8.334;2023-12-29T00:29:56;4.07;;;1.63;;
19059;SDS011;9663;48.996;8.334;2023-12-29T00:32:21;3.97;;;1.60;;
19059;SDS011;9663;48.996;8.334;2023-12-29T00:34:47;3.13;;;1.30;;
19059;SDS011;9663;48.996;8.334;2023-12-29T00:37:12;3.78;;;1.67;;
19059;SDS011;9663;48.996;8.334;2023-12-29T00:39:38;3.88;;;1.67;;
19059;SDS011;9663;48.996;8.334;2023-12-29T00:42:05;4.53;;;1.70;;
19059;SDS011;9663;48.996;8.334;2023-12-29T00:44:32;3.45;;;1.50;;
19059;SDS011;9663;48.996;8.334;2023-12-29T00:46:58;3.35;;;1.50;;
19059;SDS011;9663;48.996;8.334;2023-12-29T00:49:25;3.67;;;1.83;;
19059;SDS011;9663;48.996;8.334;2023-12-29T00:51:51;4.13;;;1.88;;
19059;SDS011;9663;48.996;8.334;2023-12-29T00:54:16;3.78;;;1.52;;
19059;SDS011;9663;48.996;8.334;2023-12-29T00:56:48;3.38;;;1.60;;
19059;SDS011;9663;48.996;8.334;2023-12-29T00:59:14;3.85;;;1.63;;
19059;SDS011;9663;48.996;8.334;2023-12-29T01:01:40;4.25;;;1.73;;
19059;SDS011;9663;48.996;8.334;2023-12-29T01:04:06;5.25;;;1.75;;
19059;SDS011;9663;48.996;8.334;2023-12-29T01:06:31;3.45;;;1.70;;
19059;SDS011;9663;48.996;8.334;2023-12-29T01:08:57;5.50;;;1.70;;
19059;SDS011;9663;48.996;8.334;2023-12-29T01:11:23;4.30;;;1.60;;
19059;SDS011;9663;48.996;8.334;2023-12-29T01:13:48;3.60;;;1.70;;
19059;SDS011;9663;48.996;8.334;2023-12-29T01:16:14;3.38;;;1.50;;
19059;SDS011;9663;48.996;8.334;2023-12-29T01:18:40;3.83;;;1.75;;
19059;SDS011;9663;48.996;8.334;2023-12-29T01:21:05;4.22;;;1.73;;
19059;SDS011;9663;48.996;8.334;2023-12-29T01:23:31;3.38;;;1.65;;
19059;SDS011;9663;48.996;8.334;2023-12-29T01:25:56;4.38;;;1.70;;
19059;SDS011;9663;48.996;8.334;2023-12-29T01:28:23;3.97;;;1.70;;
19059;SDS011;9663;48.996;8.334;2023-12-29T01:30:50;3.65;;;1.60;;
19059;SDS011;9663;48.996;8.334;2023-12-29T01:33:16;3.67;;;1.67;;
19059;SDS011;9663;48.996;8.334;2023-12-29T01:35:42;4.38;;;1.88;;
19059;SDS011;9663;48.996;8.334;2023-12-29T01:38:07;3.30;;;1.50;;
19059;SDS011;9663;48.996;8.334;2023-12-29T01:40:41;3.70;;;1.70;;
19059;SDS011;9663;48.996;8.334;2023-12-29T01:43:11;3.50;;;1.60;;
19059;SDS011;9663;48.996;8.334;2023-12-29T01:45:37;4.70;;;1.65;;
19059;SDS011;9663;48.996;8.334;2023-12-29T01:48:02;3.78;;;1.70;;
19059;SDS011;9663;48.996;8.334;2023-12-29T01:50:29;3.50;;;1.75;;
19059;SDS011;9663;48.996;8.334;2023-12-29T01:52:55;4.05;;;1.75;;
19059;SDS011;9663;48.996;8.334;2023-12-29T01:55:22;3.72;;;1.65;;
19059;SDS011;9663;48.996;8.334;2023-12-29T01:57:50;5.07;;;1.92;;
19059;SDS011;9663;48.996;8.334;2023-12-29T02:00:17;3.45;;;1.50;;
19059;SDS011;9663;48.996;8.334;2023-12-29T02:02:43;3.78;;;1.80;;
19059;SDS011;9663;48.996;8.334;2023-12-29T02:05:13;4.35;;;2.20;;
19059;SDS011;9663;48.996;8.334;2023-12-29T02:07:41;4.22;;;1.80;;
19059;SDS011;9663;48.996;8.334;2023-12-29T02:10:07;3.72;;;1.50;;
19059;SDS011;9663;48.996;8.334;2023-12-29T02:12:35;3.72;;;1.90;;
19059;SDS011;9663;48.996;8.334;2023-12-29T02:15:04;4.57;;;1.60;;
19059;SDS011;9663;48.996;8.334;2023-12-29T02:17:35;3.00;;;1.40;;
19059;SDS011;9663;48.996;8.334;2023-12-29T02:20:10;4.32;;;2.03;;
19059;SDS011;9663;48.996;8.334;2023-12-29T02:22:37;3.67;;;1.65;;
19059;SDS011;9663;48.996;8.334;2023-12-29T02:25:04;3.72;;;1.75;;
19059;SDS011;9663;48.996;8.334;2023-12-29T02:30:29;3.10;;;1.60;;
19059;SDS011;9663;48.996;8.334;2023-12-29T02:33:07;3.50;;;1.55;;
19059;SDS011;9663;48.996;8.334;2023-12-29T02:35:42;4.30;;;1.55;;
19059;SDS011;9663;48.996;8.334;2023-12-29T02:38:10;3.13;;;1.40;;
19059;SDS011;9663;48.996;8.334;2023-12-29T02:40:37;3.50;;;1.48;;
19059;SDS011;9663;48.996;8.334;2023-12-29T02:43:03;3.42;;;1.50;;
19059;SDS011;9663;48.996;8.334;2023-12-29T02:45:29;3.42;;;1.50;;
19059;SDS011;9663;48.996;8.334;2023-12-29T02:47:55;3.15;;;1.35;;
19059;SDS011;9663;48.996;8.334;2023-12-29T02:50:20;4.05;;;1.50;;
19059;SDS011;9663;48.996;8.334;2023-12-29T02:52:46;3.67;;;1.63;;
19059;SDS011;9663;48.996;8.334;2023-12-29T02:55:12;3.85;;;1.40;;
19059;SDS011;9663;48.996;8.334;2023-12-29T02:57:38;4.35;;;2.10;;
19059;SDS011;9663;48.996;8.334;2023-12-29T03:00:05;3.00;;;1.40;;
19059;SDS011;9663;48.996;8.334;2023-12-29T03:02:31;4.20;;;2.00;;
19059;SDS011;9663;48.996;8.334;2023-12-29T03:04:58;4.22;;;1.60;;
19059;SDS011;9663;48.996;8.334;2023-12-29T03:07:24;3.15;;;1.50;;
19059;SDS011;9663;48.996;8.334;2023-12-29T03:09:49;2.97;;;1.30;;
19059;SDS011;9663;48.996;8.334;2023-12-29T03:12:15;4.20;;;1.70;;
19059;SDS011;9663;48.996;8.334;2023-12-29T03:14:41;3.00;;;1.40;;
19059;SDS011;9663;48.996;8.334;2023-12-29T03:17:06;2.83;;;1.40;;
19059;SDS011;9663;48.996;8.334;2023-12-29T03:19:32;3.75;;;1.50;;
19059;SDS011;9663;48.996;8.334;2023-12-29T03:21:58;3.53;;;1.52;;
19059;SDS011;9663;48.996;8.334;2023-12-29T03:24:24;4.22;;;1.55;;
19059;SDS011;9663;48.996;8.334;2023-12-29T03:26:49;3.15;;;1.40;;
19059;SDS011;9663;48.996;8.334;2023-12-29T03:29:15;3.65;;;1.50;;
19059;SDS011;9663;48.996;8.334;2023-12-29T03:31:40;3.33;;;1.50;;
19059;SDS011;9663;48.996;8.334;2023-12-29T03:34:06;3.45;;;1.30;;
19059;SDS011;9663;48.996;8.334;2023-12-29T03:36:32;3.50;;;1.42;;
19059;SDS011;9663;48.996;8.334;2023-12-29T03:38:57;3.13;;;1.42;;
19059;SDS011;9663;48.996;8.334;2023-12-29T03:41:23;3.53;;;1.40;;
19059;SDS011;9663;48.996;8.334;2023-12-29T03:43:49;4.53;;;1.60;;
19059;SDS011;9663;48.996;8.334;2023-12-29T03:46:15;3.05;;;1.38;;
19059;SDS011;9663;48.996;8.334;2023-12-29T03:48:45;5.43;;;1.50;;
19059;SDS011;9663;48.996;8.334;2023-12-29T03:51:12;3.50;;;1.40;;
19059;SDS011;9663;48.996;8.334;2023-12-29T03:53:39;4.45;;;1.50;;
19059;SDS011;9663;48.996;8.334;2023-12-29T03:56:06;3.13;;;1.30;;
19059;SDS011;9663;48.996;8.334;2023-12-29T03:58:40;3.78;;;1.60;;
19059;SDS011;9663;48.996;8.334;2023-12-29T04:01:09;3.60;;;1.50;;
19059;SDS011;9663;48.996;8.334;2023-12-29T04:03:45;3.88;;;1.40;;
19059;SDS011;9663;48.996;8.334;2023-12-29T04:06:11;3.10;;;1.30;;
19059;SDS011;9663;48.996;8.334;2023-12-29T04:08:37;4.00;;;1.75;;
19059;SDS011;9663;48.996;8.334;2023-12-29T04:11:03;3.72;;;1.42;;
19059;SDS011;9663;48.996;8.334;2023-12-29T04:13:30;4.60;;;1.50;;
19059;SDS011;9663;48.996;8.334;2023-12-29T04:15:56;3.28;;;1.55;;
19059;SDS011;9663;48.996;8.334;2023-12-29T04:18:23;3.33;;;1.60;;
19059;SDS011;9663;48.996;8.334;2023-12-29T04:20:49;3.40;;;1.50;;
19059;SDS011;9663;48.996;8.334;2023-12-29T04:23:15;3.70;;;1.50;;
19059;SDS011;9663;48.996;8.334;2023-12-29T04:25:41;3.70;;;1.70;;
19059;SDS011;9663;48.996;8.334;2023-12-29T04:28:07;4.20;;;1.75;;
19059;SDS011;9663;48.996;8.334;2023-12-29T04:30:34;3.78;;;1.50;;
19059;SDS011;9663;48.996;8.334;2023-12-29T04:33:00;4.90;;;1.67;;
19059;SDS011;9663;48.996;8.334;2023-12-29T04:35:26;4.20;;;1.48;;
19059;SDS011;9663;48.996;8.334;2023-12-29T04:37:51;3.30;;;1.33;;
19059;SDS011;9663;48.996;8.334;2023-12-29T04:40:17;3.35;;;1.55;;
19059;SDS011;9663;48.996;8.334;2023-12-29T04:42:43;3.22;;;1.48;;
19059;SDS011;9663;48.996;8.334;2023-12-29T04:45:09;3.63;;;1.67;;
19059;SDS011;9663;48.996;8.334;2023-12-29T04:47:36;3.40;;;1.58;;
19059;SDS011;9663;48.996;8.334;2023-12-29T04:50:02;4.20;;;1.70;;
19059;SDS011;9663;48.996;8.334;2023-12-29T04:52:28;3.78;;;1.63;;
19059;SDS011;9663;48.996;8.334;2023-12-29T04:54:54;3.78;;;1.70;;
19059;SDS011;9663;48.996;8.334;2023-12-29T04:57:20;3.30;;;1.48;;
19059;SDS011;9663;48.996;8.334;2023-12-29T04:59:45;3.58;;;1.65;;
19059;SDS011;9663;48.996;8.334;2023-12-29T05:02:11;4.20;;;1.60;;
19059;SDS011;9663;48.996;8.334;2023-12-29T05:04:37;3.30;;;1.52;;
19059;SDS011;9663;48.996;8.334;2023-12-29T05:07:03;3.35;;;1.50;;
19059;SDS011;9663;48.996;8.334;2023-12-29T05:09:34;8.35;;;1.90;;
19059;SDS011;9663;48.996;8.334;2023-12-29T05:12:00;3.60;;;1.80;;
19059;SDS011;9663;48.996;8.334;2023-12-29T05:14:26;2.47;;;1.20;;
19059;SDS011;9663;48.996;8.334;2023-12-29T05:16:52;2.97;;;1.38;;
19059;SDS011;9663;48.996;8.334;2023-12-29T05:19:17;2.72;;;1.10;;
19059;SDS011;9663;48.996;8.334;2023-12-29T05:21:43;4.90;;;1.40;;
19059;SDS011;9663;48.996;8.334;2023-12-29T05:24:09;3.28;;;1.30;;
19059;SDS011;9663;48.996;8.334;2023-12-29T05:26:35;3.42;;;1.33;;
19059;SDS011;9663;48.996;8.334;2023-12-29T05:29:00;3.25;;;1.40;;
19059;SDS011;9663;48.996;8.334;2023-12-29T05:31:27;3.00;;;1.38;;
19059;SDS011;9663;48.996;8.334;2023-12-29T05:33:53;4.47;;;1.55;;
19059;SDS011;9663;48.996;8.334;2023-12-29T05:36:20;3.40;;;1.40;;
19059;SDS011;9663;48.996;8.334;2023-12-29T05:38:46;2.88;;;1.40;;
19059;SDS011;9663;48.996;8.334;2023-12-29T05:41:15;3.72;;;1.50;;
19059;SDS011;9663;48.996;8.334;2023-12-29T05:43:41;3.65;;;1.48;;
19059;SDS011;9663;48.996;8.334;2023-12-29T05:46:10;3.78;;;1.60;;
19059;SDS011;9663;48.996;8.334;2023-12-29T05:48:37;3.10;;;1.38;;
19059;SDS011;9663;48.996;8.334;2023-12-29T05:51:10;3.15;;;1.42;;
19059;SDS011;9663;48.996;8.334;2023-12-29T05:53:41;2.97;;;1.30;;
19059;SDS011;9663;48.996;8.334;2023-12-29T05:56:07;3.40;;;1.50;;
19059;SDS011;9663;48.996;8.334;2023-12-29T05:58:33;3.15;;;1.40;;
19059;SDS011;9663;48.996;8.334;2023-12-29T06:00:58;3.00;;;1.30;;
19059;SDS011;9663;48.996;8.334;2023-12-29T06:03:25;3.70;;;1.55;;
19059;SDS011;9663;48.996;8.334;2023-12-29T06:05:51;4.32;;;1.65;;
19059;SDS011;9663;48.996;8.334;2023-12-29T06:08:17;3.50;;;1.35;;
19059;SDS011;9663;48.996;8.334;2023-12-29T06:10:43;3.17;;;1.40;;
19059;SDS011;9663;48.996;8.334;2023-12-29T06:13:08;3.10;;;1.35;;
19059;SDS011;9663;48.996;8.334;2023-12-29T06:15:34;3.63;;;1.50;;
19059;SDS011;9663;48.996;8.334;2023-12-29T06:18:01;3.35;;;1.45;;
19059;SDS011;9663;48.996;8.334;2023-12-29T06:20:27;3.45;;;1.27;;
19059;SDS011;9663;48.996;8.334;2023-12-29T06:22:53;3.92;;;1.55;;
19059;SDS011;9663;48.996;8.334;2023-12-29T06:25:20;2.75;;;1.20;;
19059;SDS011;9663;48.996;8.334;2023-12-29T06:27:46;2.85;;;1.25;;
19059;SDS011;9663;48.996;8.334;2023-12-29T06:30:12;3.30;;;1.40;;
19059;SDS011;9663;48.996;8.334;2023-12-29T06:32:37;2.28;;;1.10;;
19059;SDS011;9663;48.996;8.334;2023-12-29T06:35:05;2.90;;;1.30;;
19059;SDS011;9663;48.996;8.334;2023-12-29T06:37:31;3.25;;;1.10;;
19059;SDS011;9663;48.996;8.334;2023-12-29T06:39:57;2.92;;;1.48;;
19059;SDS011;9663;48.996;8.334;2023-12-29T06:42:23;3.15;;;1.45;;
19059;SDS011;9663;48.996;8.334;2023-12-29T06:44:49;3.03;;;1.50;;
19059;SDS011;9663;48.996;8.334;2023-12-29T06:47:15;3.85;;;1.55;;
19059;SDS011;9663;48.996;8.334;2023-12-29T06:49:41;3.28;;;1.30;;
19059;SDS011;9663;48.996;8.334;2023-12-29T06:52:06;3.83;;;1.58;;
19059;SDS011;9663;48.996;8.334;2023-12-29T06:54:35;4.05;;;1.25;;
19059;SDS011;9663;48.996;8.334;2023-12-29T06:57:01;3.38;;;1.40;;
19059;SDS011;9663;48.996;8.334;2023-12-29T06:59:27;2.80;;;1.20;;
19059;SDS011;9663;48.996;8.334;2023-12-29T07:01:53;3.28;;;1.33;;
19059;SDS011;9663;48.996;8.334;2023-12-29T07:04:19;3.33;;;1.40;;
19059;SDS011;9663;48.996;8.334;2023-12-29T07:06:44;3.85;;;1.30;;
19059;SDS011;9663;48.996;8.334;2023-12-29T07:09:10;3.25;;;1.40;;
19059;SDS011;9663;48.996;8.334;2023-12-29T07:11:36;3.50;;;1.50;;
19059;SDS011;9663;48.996;8.334;2023-12-29T07:14:02;2.90;;;1.30;;
19059;SDS011;9663;48.996;8.334;2023-12-29T07:16:28;2.92;;;1.40;;
19059;SDS011;9663;48.996;8.334;2023-12-29T07:18:54;3.35;;;1.45;;
19059;SDS011;9663;48.996;8.334;2023-12-29T07:21:20;3.45;;;1.48;;
19059;SDS011;9663;48.996;8.334;2023-12-29T07:23:45;3.65;;;1.40;;
19059;SDS011;9663;48.996;8.334;2023-12-29T07:26:11;3.10;;;1.40;;
19059;SDS011;9663;48.996;8.334;2023-12-29T07:28:37;3.17;;;1.25;;
19059;SDS011;9663;48.996;8.334;2023-12-29T07:31:03;2.92;;;1.38;;
19059;SDS011;9663;48.996;8.334;2023-12-29T07:33:29;3.17;;;1.38;;
19059;SDS011;9663;48.996;8.334;2023-12-29T07:35:55;3.10;;;1.20;;
19059;SDS011;9663;48.996;8.334;2023-12-29T07:38:21;2.60;;;1.20;;
19059;SDS011;9663;48.996;8.334;2023-12-29T07:40:48;2.83;;;1.20;;
19059;SDS011;9663;48.996;8.334;2023-12-29T07:43:14;4.10;;;1.60;;
19059;SDS011;9663;48.996;8.334;2023-12-29T07:45:40;2.83;;;1.30;;
19059;SDS011;9663;48.996;8.334;2023-12-29T07:48:05;2.72;;;1.20;;
19059;SDS011;9663;48.996;8.334;2023-12-29T07:50:31;3.85;;;1.40;;
19059;SDS011;9663;48.996;8.334;2023-12-29T07:52:58;3.35;;;1.20;;
19059;SDS011;9663;48.996;8.334;2023-12-29T07:55:27;3.40;;;1.50;;
19059;SDS011;9663;48.996;8.334;2023-12-29T07:57:54;3.50;;;1.33;;
19059;SDS011;9663;48.996;8.334;2023-12-29T08:00:19;4.72;;;1.77;;
19059;SDS011;9663;48.996;8.334;2023-12-29T08:02:45;3.53;;;1.45;;
19059;SDS011;9663;48.996;8.334;2023-12-29T08:05:11;2.85;;;1.30;;
19059;SDS011;9663;48.996;8.334;2023-12-29T08:07:37;2.67;;;1.10;;
19059;SDS011;9663;48.996;8.334;2023-12-29T08:10:03;3.67;;;1.65;;
19059;SDS011;9663;48.996;8.334;2023-12-29T08:12:30;3.75;;;1.40;;
19059;SDS011;9663;48.996;8.334;2023-12-29T08:14:58;3.47;;;1.40;;
19059;SDS011;9663;48.996;8.334;2023-12-29T08:17:25;3.30;;;1.30;;
19059;SDS011;9663;48.996;8.334;2023-12-29T08:19:51;3.03;;;1.27;;
19059;SDS011;9663;48.996;8.334;2023-12-29T08:22:17;3.05;;;1.33;;
19059;SDS011;9663;48.996;8.334;2023-12-29T08:24:44;2.80;;;1.20;;
19059;SDS011;9663;48.996;8.334;2023-12-29T08:27:12;3.70;;;1.50;;
19059;SDS011;9663;48.996;8.334;2023-12-29T08:29:38;3.00;;;1.30;;
19059;SDS011;9663;48.996;8.334;2023-12-29T08:32:05;2.97;;;1.38;;
19059;SDS011;9663;48.996;8.334;2023-12-29T08:34:32;3.15;;;1.33;;
19059;SDS011;9663;48.996;8.334;2023-12-29T08:37:03;2.72;;;1.20;;
19059;SDS011;9663;48.996;8.334;2023-12-29T08:39:28;2.95;;;1.30;;
19059;SDS011;9663;48.996;8.334;2023-12-29T08:41:54;3.05;;;1.30;;
19059;SDS011;9663;48.996;8.334;2023-12-29T08:44:20;2.75;;;1.17;;
19059;SDS011;9663;48.996;8.334;2023-12-29T08:46:45;3.03;;;1.40;;
19059;SDS011;9663;48.996;8.334;2023-12-29T08:49:11;2.97;;;1.30;;
19059;SDS011;9663;48.996;8.334;2023-12-29T08:51:37;3.78;;;1.42;;
19059;SDS011;9663;48.996;8.334;2023-12-29T08:54:02;3.17;;;1.33;;
19059;SDS011;9663;48.996;8.334;2023-12-29T08:56:28;3.20;;;1.20;;
19059;SDS011;9663;48.996;8.334;2023-12-29T08:58:54;2.88;;;1.23;;
19059;SDS011;9663;48.996;8.334;2023-12-29T09:01:20;5.53;;;1.70;;
19059;SDS011;9663;48.996;8.334;2023-12-29T09:03:45;3.72;;;1.33;;
19059;SDS011;9663;48.996;8.334;2023-12-29T09:06:11;3.45;;;1.55;;
19059;SDS011;9663;48.996;8.334;2023-12-29T09:08:37;4.13;;;1.50;;
19059;SDS011;9663;48.996;8.334;2023-12-29T09:11:03;2.65;;;1.10;;
19059;SDS011;9663;48.996;8.334;2023-12-29T09:13:29;3.78;;;1.38;;
19059;SDS011;9663;48.996;8.334;2023-12-29T09:15:55;3.10;;;1.30;;
19059;SDS011;9663;48.996;8.334;2023-12-29T09:18:22;3.13;;;1.38;;
19059;SDS011;9663;48.996;8.334;2023-12-29T09:20:48;3.35;;;1.42;;
19059;SDS011;9663;48.996;8.334;2023-12-29T09:23:14;3.17;;;1.45;;
19059;SDS011;9663;48.996;8.334;2023-12-29T09:25:40;2.42;;;1.10;;
19059;SDS011;9663;48.996;8.334;2023-12-29T09:28:06;2.67;;;1.20;;
19059;SDS011;9663;48.996;8.334;2023-12-29T09:30:32;3.40;;;1.20;;
19059;SDS011;9663;48.996;8.334;2023-12-29T09:32:58;2.75;;;1.20;;
19059;SDS011;9663;48.996;8.334;2023-12-29T09:35:23;2.55;;;1.13;;
19059;SDS011;9663;48.996;8.334;2023-12-29T09:37:50;3.53;;;1.20;;
19059;SDS011;9663;48.996;8.334;2023-12-29T09:40:16;3.47;;;1.20;;
19059;SDS011;9663;48.996;8.334;2023-12-29T09:42:43;3.08;;;1.08;;
19059;SDS011;9663;48.996;8.334;2023-12-29T09:45:12;3.05;;;1.30;;
19059;SDS011;9663;48.996;8.334;2023-12-29T09:47:40;2.85;;;1.20;;
19059;SDS011;9663;48.996;8.334;2023-12-29T09:50:10;2.30;;;0.90;;
19059;SDS011;9663;48.996;8.334;2023-12-29T09:52:38;2.55;;;1.15;;
19059;SDS011;9663;48.996;8.334;2023-12-29T09:55:07;2.88;;;1.13;;
19059;SDS011;9663;48.996;8.334;2023-12-29T09:57:38;2.13;;;0.90;;
19059;SDS011;9663;48.996;8.334;2023-12-29T10:00:05;2.63;;;1.10;;
19059;SDS011;9663;48.996;8.334;2023-12-29T10:02:36;2.42;;;1.00;;
19059;SDS011;9663;48.996;8.334;2023-12-29T10:05:03;2.25;;;1.10;;
19059;SDS011;9663;48.996;8.334;2023-12-29T10:07:37;2.60;;;1.10;;
19059;SDS011;9663;48.996;8.334;2023-12-29T10:10:05;2.35;;;0.93;;
19059;SDS011;9663;48.996;8.334;2023-12-29T10:12:32;1.92;;;0.80;;
19059;SDS011;9663;48.996;8.334;2023-12-29T10:15:04;2.20;;;1.00;;
19059;SDS011;9663;48.996;8.334;2023-12-29T10:17:46;2.45;;;0.90;;
19059;SDS011;9663;48.996;8.334;2023-12-29T10:20:52;2.42;;;1.13;;
19059;SDS011;9663;48.996;8.334;2023-12-29T10:23:47;1.98;;;0.85;;
19059;SDS011;9663;48.996;8.334;2023-12-29T10:26:28;2.13;;;1.00;;
19059;SDS011;9663;48.996;8.334;2023-12-29T10:28:54;2.20;;;0.93;;
19059;SDS011;9663;48.996;8.334;2023-12-29T10:31:22;2.92;;;1.17;;
19059;SDS011;9663;48.996;8.334;2023-12-29T10:33:48;2.53;;;1.00;;
19059;SDS011;9663;48.996;8.334;2023-12-29T10:36:16;2.10;;;0.85;;
19059;SDS011;9663;48.996;8.334;2023-12-29T10:38:42;2.50;;;1.00;;
19059;SDS011;9663;48.996;8.334;2023-12-29T10:43:42;1.70;;;0.90;;
19059;SDS011;9663;48.996;8.334;2023-12-29T10:46:12;2.33;;;1.00;;
19059;SDS011;9663;48.996;8.334;2023-12-29T10:48:38;2.15;;;0.90;;
19059;SDS011;9663;48.996;8.334;2023-12-29T10:51:05;2.95;;;1.02;;
19059;SDS011;9663;48.996;8.334;2023-12-29T10:53:34;1.77;;;0.80;;
19059;SDS011;9663;48.996;8.334;2023-12-29T10:56:02;2.65;;;1.10;;
19059;SDS011;9663;48.996;8.334;2023-12-29T10:58:29;2.50;;;1.02;;
19059;SDS011;9663;48.996;8.334;2023-12-29T11:00:56;2.45;;;1.00;;
19059;SDS011;9663;48.996;8.334;2023-12-29T11:03:22;1.95;;;0.88;;
19059;SDS011;9663;48.996;8.334;2023-12-29T11:05:49;2.58;;;0.93;;
19059;SDS011;9663;48.996;8.334;2023-12-29T11:08:17;2.20;;;0.90;;
19059;SDS011;9663;48.996;8.334;2023-12-29T11:10:45;1.88;;;0.80;;
19059;SDS011;9663;48.996;8.334;2023-12-29T11:13:13;2.10;;;0.90;;
19059;SDS011;9663;48.996;8.334;2023-12-29T11:15:43;2.05;;;0.80;;
19059;SDS011;9663;48.996;8.334;2023-12-29T11:18:13;2.03;;;0.80;;
19059;SDS011;9663;48.996;8.334;2023-12-29T11:20:42;1.50;;;0.63;;
19059;SDS011;9663;48.996;8.334;2023-12-29T11:23:09;2.83;;;0.93;;
19059;SDS011;9663;48.996;8.334;2023-12-29T11:25:38;1.70;;;0.80;;
19059;SDS011;9663;48.996;8.334;2023-12-29T11:28:04;2.00;;;0.75;;
19059;SDS011;9663;48.996;8.334;2023-12-29T11:30:38;2.58;;;1.20;;
19059;SDS011;9663;48.996;8.334;2023-12-29T11:35:54;2.08;;;0.90;;
19059;SDS011;9663;48.996;8.334;2023-12-29T11:41:24;2.55;;;0.80;;
19059;SDS011;9663;48.996;8.334;2023-12-29T11:44:11;2.83;;;1.00;;
19059;SDS011;9663;48.996;8.334;2023-12-29T11:46:40;2.28;;;1.00;;
19059;SDS011;9663;48.996;8.334;2023-12-29T11:49:10;1.88;;;0.77;;
19059;SDS011;9663;48.996;8.334;2023-12-29T11:51:42;2.25;;;0.90;;
19059;SDS011;9663;48.996;8.334;2023-12-29T11:54:23;1.90;;;0.80;;
19059;SDS011;9663;48.996;8.334;2023-12-29T11:56:52;2.42;;;1.00;;
19059;SDS011;9663;48.996;8.334;2023-12-29T11:59:22;2.53;;;1.00;;
19059;SDS011;9663;48.996;8.334;2023-12-29T12:04:39;2.10;;;0.85;;
19059;SDS011;9663;48.996;8.334;2023-12-29T12:07:08;2.08;;;0.90;;
19059;SDS011;9663;48.996;8.334;2023-12-29T12:09:40;2.13;;;0.80;;
19059;SDS011;9663;48.996;8.334;2023-12-29T12:12:06;1.77;;;0.80;;
19059;SDS011;9663;48.996;8.334;2023-12-29T12:14:43;2.33;;;0.90;;
19059;SDS011;9663;48.996;8.334;2023-12-29T12:17:26;1.77;;;0.70;;
19059;SDS011;9663;48.996;8.334;2023-12-29T12:20:00;1.33;;;0.63;;
19059;SDS011;9663;48.996;8.334;2023-12-29T12:22:35;1.85;;;0.80;;
19059;SDS011;9663;48.996;8.334;2023-12-29T12:25:02;2.00;;;0.90;;
19059;SDS011;9663;48.996;8.334;2023-12-29T12:27:30;2.60;;;1.00;;
19059;SDS011;9663;48.996;8.334;2023-12-29T12:29:58;1.73;;;0.70;;
19059;SDS011;9663;48.996;8.334;2023-12-29T12:32:28;2.25;;;1.00;;
19059;SDS011;9663;48.996;8.334;2023-12-29T12:34:55;2.13;;;0.98;;
19059;SDS011;9663;48.996;8.334;2023-12-29T12:37:23;2.40;;;1.00;;
19059;SDS011;9663;48.996;8.334;2023-12-29T12:39:54;2.58;;;0.93;;
19059;SDS011;9663;48.996;8.334;2023-12-29T12:42:21;2.30;;;1.00;;
19059;SDS011;9663;48.996;8.334;2023-12-29T12:44:55;2.63;;;1.10;;
19059;SDS011;9663;48.996;8.334;2023-12-29T12:47:39;2.40;;;1.00;;
19059;SDS011;9663;48.996;8.334;2023-12-29T12:50:11;3.15;;;1.30;;
19059;SDS011;9663;48.996;8.334;2023-12-29T12:52:38;2.90;;;1.10;;
19059;SDS011;9663;48.996;8.334;2023-12-29T12:55:05;2.08;;;0.90;;
19059;SDS011;9663;48.996;8.334;2023-12-29T12:57:33;1.88;;;0.80;;
19059;SDS011;9663;48.996;8.334;2023-12-29T13:00:00;1.88;;;0.88;;
19059;SDS011;9663;48.996;8.334;2023-12-29T13:02:28;2.38;;;0.90;;
19059;SDS011;9663;48.996;8.334;2023-12-29T13:04:56;2.45;;;0.85;;
19059;SDS011;9663;48.996;8.334;2023-12-29T13:07:22;2.40;;;1.00;;
19059;SDS011;9663;48.996;8.334;2023-12-29T13:09:49;2.00;;;0.88;;
19059;SDS011;9663;48.996;8.334;2023-12-29T13:12:17;1.95;;;0.90;;
19059;SDS011;9663;48.996;8.334;2023-12-29T13:14:44;2.03;;;1.00;;
19059;SDS011;9663;48.996;8.334;2023-12-29T13:17:14;1.92;;;0.90;;
19059;SDS011;9663;48.996;8.334;2023-12-29T13:19:42;2.55;;;1.10;;
19059;SDS011;9663;48.996;8.334;2023-12-29T13:22:09;3.60;;;0.93;;
19059;SDS011;9663;48.996;8.334;2023-12-29T13:24:43;2.85;;;1.00;;
19059;SDS011;9663;48.996;8.334;2023-12-29T13:27:11;2.60;;;1.00;;
19059;SDS011;9663;48.996;8.334;2023-12-29T13:29:38;1.85;;;0.90;;
19059;SDS011;9663;48.996;8.334;2023-12-29T13:32:07;3.03;;;1.00;;
19059;SDS011;9663;48.996;8.334;2023-12-29T13:37:40;2.53;;;1.00;;
19059;SDS011;9663;48.996;8.334;2023-12-29T13:40:22;2.28;;;0.90;;
19059;SDS011;9663;48.996;8.334;2023-12-29T13:43:17;2.33;;;0.90;;
19059;SDS011;9663;48.996;8.334;2023-12-29T13:45:46;1.70;;;0.85;;
19059;SDS011;9663;48.996;8.334;2023-12-29T13:48:13;1.60;;;0.75;;
19059;SDS011;9663;48.996;8.334;2023-12-29T13:50:44;2.22;;;0.80;;
19059;SDS011;9663;48.996;8.334;2023-12-29T13:53:18;2.50;;;1.00;;
19059;SDS011;9663;48.996;8.334;2023-12-29T13:55:45;2.47;;;0.80;;
19059;SDS011;9663;48.996;8.334;2023-12-29T13:58:12;2.88;;;1.00;;
19059;SDS011;9663;48.996;8.334;2023-12-29T14:00:41;2.08;;;0.90;;
19059;SDS011;9663;48.996;8.334;2023-12-29T14:03:27;1.58;;;0.70;;
19059;SDS011;9663;48.996;8.334;2023-12-29T14:06:11;1.77;;;0.70;;
19059;SDS011;9663;48.996;8.334;2023-12-29T14:08:45;1.88;;;0.80;;
19059;SDS011;9663;48.996;8.334;2023-12-29T14:11:11;1.83;;;0.70;;
19059;SDS011;9663;48.996;8.334;2023-12-29T14:13:41;3.35;;;0.90;;
19059;SDS011;9663;48.996;8.334;2023-12-29T14:16:12;1.58;;;0.70;;
19059;SDS011;9663;48.996;8.334;2023-12-29T14:23:57;1.63;;;0.70;;
19059;SDS011;9663;48.996;8.334;2023-12-29T14:26:27;2.47;;;0.98;;
19059;SDS011;9663;48.996;8.334;2023-12-29T14:29:00;1.88;;;0.88;;
19059;SDS011;9663;48.996;8.334;2023-12-29T14:31:34;2.35;;;1.00;;
19059;SDS011;9663;48.996;8.334;2023-12-29T14:34:06;2.22;;;0.88;;
19059;SDS011;9663;48.996;8.334;2023-12-29T14:36:34;1.88;;;0.80;;
19059;SDS011;9663;48.996;8.334;2023-12-29T14:39:01;1.70;;;0.80;;
19059;SDS011;9663;48.996;8.334;2023-12-29T14:41:28;2.22;;;0.90;;
19059;SDS011;9663;48.996;8.334;2023-12-29T14:43:55;1.50;;;0.70;;
19059;SDS011;9663;48.996;8.334;2023-12-29T14:46:21;2.25;;;0.80;;
19059;SDS011;9663;48.996;8.334;2023-12-29T14:48:48;1.77;;;0.85;;
19059;SDS011;9663;48.996;8.334;2023-12-29T14:51:14;2.80;;;0.90;;
19059;SDS011;9663;48.996;8.334;2023-12-29T14:53:42;2.20;;;0.90;;
19059;SDS011;9663;48.996;8.334;2023-12-29T14:56:10;2.17;;;0.90;;
19059;SDS011;9663;48.996;8.334;2023-12-29T14:58:36;2.55;;;0.90;;
19059;SDS011;9663;48.996;8.334;2023-12-29T15:01:02;2.38;;;0.80;;
19059;SDS011;9663;48.996;8.334;2023-12-29T15:03:28;2.53;;;0.80;;
19059;SDS011;9663;48.996;8.334;2023-12-29T15:05:54;2.15;;;0.80;;
19059;SDS011;9663;48.996;8.334;2023-12-29T15:08:21;2.35;;;1.00;;
19059;SDS011;9663;48.996;8.334;2023-12-29T15:10:46;1.73;;;0.70;;
19059;SDS011;9663;48.996;8.334;2023-12-29T15:13:12;2.42;;;0.85;;
19059;SDS011;9663;48.996;8.334;2023-12-29T15:15:38;1.70;;;0.75;;
19059;SDS011;9663;48.996;8.334;2023-12-29T15:18:04;1.58;;;0.60;;
19059;SDS011;9663;48.996;8.334;2023-12-29T15:20:30;2.05;;;0.90;;
19059;SDS011;9663;48.996;8.334;2023-12-29T15:22:56;1.90;;;0.80;;
19059;SDS011;9663;48.996;8.334;2023-12-29T15:25:24;1.95;;;0.75;;